createdAt,value
2022-08-18T00:02:03.038Z,100423.22
2022-08-18T00:04:46.017Z,100417.81
2022-08-18T00:07:30.983Z,100406.41
2022-08-18T00:10:00.999Z,100411.13
2022-08-18T00:12:39.523Z,100414.47
2022-08-18T00:15:11.115Z,100422.47
2022-08-18T00:17:40.097Z,100424.16
2022-08-18T00:20:13.122Z,100428.78
2022-08-18T00:22:42.044Z,100423.97
2022-08-18T00:25:12.600Z,100417.03
2022-08-18T00:27:41.974Z,100418.50
2022-08-18T00:30:17.341Z,100416.09
2022-08-18T00:32:50.741Z,100409.41
2022-08-18T00:35:29.021Z,100406.91
2022-08-18T00:38:00.011Z,100405.31
2022-08-18T00:40:42.276Z,100391.38
2022-08-18T00:43:24.527Z,100389.00
2022-08-18T00:45:53.390Z,100396.53
2022-08-18T00:48:23.957Z,100390.53
2022-08-18T00:50:59.832Z,100388.69
2022-08-18T00:53:51.138Z,100396.09
2022-08-18T00:56:50.378Z,100400.47
2022-08-18T00:59:38.581Z,100396.16
2022-08-18T01:02:11.057Z,100390.63
2022-08-18T01:05:18.501Z,100393.22
2022-08-18T01:07:48.296Z,100397.22
2022-08-18T01:10:21.249Z,100399.53
2022-08-18T01:12:58.699Z,100398.44
2022-08-18T01:15:30.235Z,100396.31
2022-08-18T01:18:30.938Z,100416.25
2022-08-18T01:21:42.987Z,100416.38
2022-08-18T01:24:19.782Z,100415.94
2022-08-18T01:26:50.728Z,100422.00
2022-08-18T01:29:19.849Z,100433.13
2022-08-18T01:31:56.922Z,100426.25
2022-08-18T01:34:28.084Z,100418.31
2022-08-18T01:36:56.725Z,100411.69
2022-08-18T01:41:24.377Z,100408.44
2022-08-18T01:42:17.560Z,100411.44
2022-08-18T01:44:48.126Z,100400.75
2022-08-18T01:47:18.488Z,100381.97
2022-08-18T01:49:47.299Z,100372.53
2022-08-18T01:52:22.230Z,100370.09
2022-08-18T01:54:51.588Z,100379.75
2022-08-18T01:57:22.189Z,100378.66
2022-08-18T01:59:50.847Z,100394.72
2022-08-18T02:02:27.152Z,100410.47
2022-08-18T02:05:00.077Z,100415.66
2022-08-18T02:07:34.314Z,100419.53
2022-08-18T02:10:10.319Z,100419.09
2022-08-18T02:12:41.684Z,100430.59
2022-08-18T02:15:10.945Z,100432.00
2022-08-18T02:17:41.823Z,100444.09
2022-08-18T02:20:15.254Z,100449.22
2022-08-18T02:22:44.697Z,100458.97
2022-08-18T02:25:14.315Z,100469.75
2022-08-18T02:27:43.388Z,100478.50
2022-08-18T02:30:15.264Z,100488.13
2022-08-18T02:32:44.283Z,100485.13
2022-08-18T02:35:13.059Z,100470.63
2022-08-18T02:37:42.649Z,100465.28
2022-08-18T02:40:15.002Z,100454.50
2022-08-18T02:42:45.994Z,100474.66
2022-08-18T02:45:15.275Z,100503.84
2022-08-18T02:47:45.351Z,100550.56
2022-08-18T02:50:14.454Z,100607.84
2022-08-18T02:52:43.234Z,100613.09
2022-08-18T02:55:12.006Z,100601.56
2022-08-18T02:57:46.184Z,100638.78
2022-08-18T03:00:18.962Z,100657.78
2022-08-18T03:02:49.796Z,100670.69
2022-08-18T03:05:19.194Z,100691.97
2022-08-18T03:07:47.863Z,100659.19
2022-08-18T03:10:32.847Z,100604.75
2022-08-18T03:13:21.036Z,100512.09
2022-08-18T03:15:54.705Z,100469.81
2022-08-18T03:18:25.279Z,100463.13
2022-08-18T03:20:54.151Z,100458.09
2022-08-18T03:23:30.175Z,100439.13
2022-08-18T03:25:59.174Z,100473.78
2022-08-18T03:28:29.017Z,100486.50
2022-08-18T03:30:57.724Z,100454.97
2022-08-18T03:33:26.576Z,100312.53
2022-08-18T03:35:55.150Z,100204.06
2022-08-18T03:38:23.696Z,100255.09
2022-08-18T03:40:53.300Z,100218.63
2022-08-18T03:43:25.837Z,100178.38
2022-08-18T03:46:14.776Z,100195.34
2022-08-18T03:48:44.225Z,100208.66
2022-08-18T03:51:28.075Z,100198.25
2022-08-18T03:54:01.376Z,100214.06
2022-08-18T03:56:33.921Z,100238.78
2022-08-18T03:59:08.719Z,100244.78
2022-08-18T04:01:41.418Z,100254.97
2022-08-18T04:04:15.407Z,100264.34
2022-08-18T04:06:58.808Z,100263.50
2022-08-18T04:09:29.892Z,100254.00
2022-08-18T04:11:59.394Z,100234.50
2022-08-18T04:14:32.879Z,100234.31
2022-08-18T04:17:01.630Z,100215.06
2022-08-18T04:19:31.246Z,100194.28
2022-08-18T04:21:59.809Z,100186.19
2022-08-18T04:24:31.875Z,100175.41
2022-08-18T04:27:05.488Z,100171.47
2022-08-18T04:29:34.346Z,100168.59
2022-08-18T04:32:05.217Z,100178.13
2022-08-18T04:34:34.366Z,100172.19
2022-08-18T04:37:03.308Z,100173.19
2022-08-18T04:39:32.092Z,100187.31
2022-08-18T04:42:05.397Z,100195.03
2022-08-18T04:44:38.122Z,100199.38
2022-08-18T04:47:09.299Z,100209.78
2022-08-18T04:49:38.266Z,100219.94
2022-08-18T04:52:39.828Z,100242.94
2022-08-18T04:55:11.142Z,100274.19
2022-08-18T04:57:39.913Z,100281.41
2022-08-18T05:00:11.578Z,100291.75
2022-08-18T05:02:41.525Z,100305.56
2022-08-18T05:05:10.769Z,100297.91
2022-08-18T05:07:46.048Z,100308.44
2022-08-18T05:10:18.103Z,100328.75
2022-08-18T05:12:48.891Z,100301.84
2022-08-18T05:15:19.375Z,100298.97
2022-08-18T05:17:50.935Z,100293.28
2022-08-18T05:20:20.435Z,100312.94
2022-08-18T05:22:49.973Z,100316.03
2022-08-18T05:25:18.705Z,100327.09
2022-08-18T05:27:47.520Z,100318.41
2022-08-18T05:30:17.023Z,100312.50
2022-08-18T05:32:50.106Z,100309.63
2022-08-18T05:35:48.666Z,100325.63
2022-08-18T05:38:48.945Z,100331.81
2022-08-18T05:41:39.774Z,100334.09
2022-08-18T05:44:10.791Z,100324.16
2022-08-18T05:46:50.330Z,100320.34
2022-08-18T05:49:20.031Z,100336.41
2022-08-18T05:51:55.859Z,100354.91
2022-08-18T05:54:42.778Z,100361.31
2022-08-18T05:57:19.361Z,100377.56
2022-08-18T05:59:48.157Z,100383.50
2022-08-18T06:02:26.957Z,100388.84
2022-08-18T06:04:59.529Z,100414.66
2022-08-18T06:07:47.236Z,100414.97
2022-08-18T06:10:16.345Z,100398.22
2022-08-18T06:12:50.669Z,100403.31
2022-08-18T06:16:06.796Z,100409.91
2022-08-18T06:19:30.127Z,100390.09
2022-08-18T06:22:17.490Z,100412.56
2022-08-18T06:25:35.384Z,100430.91
2022-08-18T06:28:16.094Z,100431.75
2022-08-18T06:31:03.054Z,100442.06
2022-08-18T06:33:56.102Z,100431.38
2022-08-18T06:36:54.692Z,100438.97
2022-08-18T06:39:36.885Z,100439.47
2022-08-18T06:42:06.029Z,100438.72
2022-08-18T06:44:59.939Z,100424.59
2022-08-18T06:47:47.770Z,100426.25
2022-08-18T06:50:31.283Z,100429.53
2022-08-18T06:53:04.117Z,100440.81
2022-08-18T06:55:47.633Z,100430.97
2022-08-18T06:58:27.248Z,100421.31
2022-08-18T07:01:06.739Z,100401.81
2022-08-18T07:03:46.506Z,100412.78
2022-08-18T07:06:22.005Z,100457.59
2022-08-18T07:08:56.261Z,100497.84
2022-08-18T07:11:34.588Z,100471.16
2022-08-18T07:14:23.630Z,100442.88
2022-08-18T07:17:07.797Z,100423.78
2022-08-18T07:19:36.675Z,100641.47
2022-08-18T07:22:13.996Z,100697.69
2022-08-18T07:24:50.102Z,100644.97
2022-08-18T07:27:41.655Z,100651.13
2022-08-18T07:30:29.887Z,100635.81
2022-08-18T07:33:17.139Z,100610.84
2022-08-18T07:35:51.974Z,100598.03
2022-08-18T07:38:49.219Z,100604.47
2022-08-18T07:41:26.978Z,100603.53
2022-08-18T07:44:22.576Z,100583.91
2022-08-18T07:47:03.877Z,100556.19
2022-08-18T07:49:36.127Z,100492.78
2022-08-18T07:52:36.607Z,100427.06
2022-08-18T07:55:16.294Z,100365.88
2022-08-18T07:58:19.969Z,100304.91
2022-08-18T08:01:04.852Z,100260.28
2022-08-18T08:04:00.432Z,100216.56
2022-08-18T08:07:12.791Z,100270.06
2022-08-18T08:10:00.808Z,100317.41
2022-08-18T08:12:40.125Z,100282.56
2022-08-18T08:15:36.449Z,100236.72
2022-08-18T08:18:23.189Z,100209.56
2022-08-18T08:21:00.929Z,100206.69
2022-08-18T08:23:39.236Z,100206.69
2022-08-18T08:26:45.318Z,100190.72
2022-08-18T08:29:29.099Z,100183.06
2022-08-18T08:32:36.348Z,100209.22
2022-08-18T08:35:49.668Z,100223.72
2022-08-18T08:38:38.782Z,100217.31
2022-08-18T08:41:08.939Z,100212.53
2022-08-18T08:43:59.175Z,100214.22
2022-08-18T08:46:31.232Z,100242.03
2022-08-18T08:49:26.518Z,100246.59
2022-08-18T08:52:18.943Z,100246.38
2022-08-18T08:55:06.393Z,100236.22
2022-08-18T08:57:42.961Z,100215.25
2022-08-18T09:00:15.252Z,100195.56
2022-08-18T09:02:58.872Z,100177.50
2022-08-18T09:05:44.430Z,100160.09
2022-08-18T09:08:55.504Z,100148.25
2022-08-18T09:12:26.198Z,100148.25
2022-08-18T09:15:25.762Z,100152.66
2022-08-18T09:18:16.067Z,100174.88
2022-08-18T09:21:11.339Z,100184.00
2022-08-18T09:23:47.167Z,100187.31
2022-08-18T09:26:42.848Z,100207.06
2022-08-18T09:29:43.937Z,100222.16
2022-08-18T09:32:19.400Z,100205.09
2022-08-18T09:35:09.519Z,100220.94
2022-08-18T09:38:20.623Z,100213.00
2022-08-18T09:41:15.093Z,100197.88
2022-08-18T09:44:12.026Z,100208.47
2022-08-18T09:46:53.167Z,100218.81
2022-08-18T09:49:28.129Z,100225.84
2022-08-18T09:55:18.409Z,100219.00
2022-08-18T09:57:48.266Z,100235.81
2022-08-18T10:00:33.603Z,100280.84
2022-08-18T10:03:11.527Z,100252.81
2022-08-18T10:05:40.882Z,100205.09
2022-08-18T10:11:45.841Z,100194.09
2022-08-18T10:14:38.663Z,100227.94
2022-08-18T10:18:18.772Z,100258.66
2022-08-18T10:21:04.082Z,100289.75
2022-08-18T10:24:21.976Z,100370.88
2022-08-18T10:26:54.015Z,100561.97
2022-08-18T10:29:28.985Z,100543.75
2022-08-18T10:31:58.623Z,100446.91
2022-08-18T10:34:52.482Z,100369.63
2022-08-18T10:37:44.824Z,100396.94
2022-08-18T10:43:45.214Z,100354.75
2022-08-18T10:46:32.925Z,100304.06
2022-08-18T10:49:12.958Z,100292.47
2022-08-18T10:52:22.695Z,100267.75
2022-08-18T10:55:10.187Z,100256.84
2022-08-18T10:57:57.914Z,100259.47
2022-08-18T11:00:55.258Z,100239.53
2022-08-18T11:03:59.498Z,100240.34
2022-08-18T11:06:47.815Z,100251.00
2022-08-18T11:09:28.192Z,100264.47
2022-08-18T11:12:04.908Z,100249.72
2022-08-18T11:15:26.086Z,100257.63
2022-08-18T11:18:32.985Z,100258.81
2022-08-18T11:21:27.290Z,100227.19
2022-08-18T11:24:24.940Z,100214.38
2022-08-18T11:27:02.883Z,100204.56
2022-08-18T11:29:42.844Z,100186.69
2022-08-18T11:32:51.435Z,100158.56
2022-08-18T11:35:49.675Z,100135.13
2022-08-18T11:38:20.955Z,100025.03
2022-08-18T11:41:13.119Z,99937.09
2022-08-18T11:43:43.418Z,99932.22
2022-08-18T11:46:30.499Z,99997.88
2022-08-18T11:49:02.128Z,100063.41
2022-08-18T11:51:34.236Z,100068.88
2022-08-18T11:54:15.723Z,100091.91
2022-08-18T11:56:44.547Z,100111.03
2022-08-18T11:59:55.196Z,100104.16
2022-08-18T12:02:26.219Z,100093.63
2022-08-18T12:07:58.021Z,100118.00
2022-08-18T12:10:29.249Z,100137.06
2022-08-18T12:13:01.612Z,100149.97
2022-08-18T12:15:46.635Z,100146.69
2022-08-18T12:18:25.964Z,100166.47
2022-08-18T12:20:59.186Z,100167.44
2022-08-18T12:23:38.424Z,100177.72
2022-08-18T12:26:27.178Z,100212.16
2022-08-18T12:29:02.843Z,100228.41
